createdAt,value
2018-05-26T00:00:47.772Z,7.50
2018-05-26T00:01:47.748Z,7.40
2018-05-26T00:02:47.635Z,7.40
2018-05-26T00:05:29.773Z,7.60
2018-05-26T00:06:29.764Z,7.50
2018-05-26T00:19:05.190Z,7.30
2018-05-26T00:20:05.057Z,7.40
2018-05-26T00:21:05.066Z,7.70
2018-05-26T00:22:04.903Z,7.30
2018-05-26T00:23:04.901Z,7.90
2018-05-26T00:24:04.770Z,7.40
2018-05-26T00:25:04.802Z,7.30
2018-05-26T00:26:04.586Z,8.00
2018-05-26T00:27:04.592Z,7.30
2018-05-26T00:28:04.444Z,7.40
2018-05-26T00:29:05.470Z,7.10
2018-05-26T00:30:04.280Z,8.10
2018-05-26T00:31:04.316Z,7.10
2018-05-26T00:32:04.125Z,7.10
2018-05-26T00:33:04.127Z,7.60
2018-05-26T00:34:04.008Z,7.10
2018-05-26T00:35:03.926Z,7.70
2018-05-26T00:36:03.825Z,7.20
2018-05-26T00:37:03.847Z,7.40
2018-05-26T00:38:03.657Z,7.60
2018-05-26T00:39:03.607Z,7.90
2018-05-26T00:40:03.523Z,7.70
2018-05-26T00:41:03.459Z,7.50
2018-05-26T00:42:03.352Z,7.70
2018-05-26T00:43:03.368Z,7.50
2018-05-26T00:44:03.195Z,7.40
2018-05-26T00:45:04.249Z,7.40
2018-05-26T00:46:03.041Z,7.30
2018-05-26T00:48:45.282Z,7.20
2018-05-26T00:49:45.342Z,7.40
2018-05-26T00:50:45.147Z,7.50
2018-05-26T00:51:45.103Z,7.00
2018-05-26T00:52:44.973Z,7.90
2018-05-26T00:53:45.025Z,8.10
2018-05-26T00:54:44.831Z,7.70
2018-05-26T00:55:44.850Z,7.80
2018-05-26T00:56:44.663Z,7.50
2018-05-26T00:57:44.755Z,6.70
2018-05-26T00:58:44.492Z,7.30
2018-05-26T00:59:44.541Z,8.00
2018-05-26T01:00:44.376Z,7.30
2018-05-26T01:01:44.360Z,7.40
2018-05-26T01:02:44.197Z,7.50
2018-05-26T01:03:44.168Z,7.80
2018-05-26T01:04:44.056Z,7.30
2018-05-26T01:05:44.108Z,7.50
2018-05-26T01:06:43.900Z,7.20
2018-05-26T01:07:43.881Z,7.40
2018-05-26T01:08:43.723Z,7.40
2018-05-26T01:11:25.818Z,7.70
2018-05-26T01:12:25.784Z,7.40
2018-05-26T01:13:25.626Z,9.30
2018-05-26T01:16:07.800Z,8.30
2018-05-26T01:18:49.796Z,7.50
2018-05-26T01:19:54.374Z,7.10
2018-05-26T01:20:49.685Z,7.10
2018-05-26T01:21:53.496Z,8.00
2018-05-26T01:22:49.494Z,8.00
2018-05-26T01:23:51.463Z,7.90
2018-05-26T01:24:49.317Z,7.90
2018-05-26T01:25:49.373Z,7.80
2018-05-26T01:26:49.164Z,8.10
2018-05-26T01:27:49.128Z,8.70
2018-05-26T01:28:49.025Z,7.70
2018-05-26T01:29:49.045Z,8.40
2018-05-26T01:30:48.869Z,8.40
2018-05-26T01:31:48.849Z,8.10
2018-05-26T01:32:48.722Z,7.90
2018-05-26T01:33:48.661Z,7.90
2018-05-26T01:34:48.555Z,7.80
2018-05-26T01:35:48.598Z,8.00
2018-05-26T01:36:48.433Z,7.90
2018-05-26T01:37:48.392Z,8.00
2018-05-26T01:38:48.245Z,7.60
2018-05-26T01:39:48.288Z,8.20
2018-05-26T01:40:48.083Z,7.70
2018-05-26T01:41:48.025Z,7.70
2018-05-26T01:42:47.934Z,7.70
2018-05-26T01:43:47.906Z,7.90
2018-05-26T01:44:47.773Z,8.20
2018-05-26T01:45:47.823Z,8.00
2018-05-26T01:46:47.646Z,7.90
2018-05-26T01:47:47.627Z,8.10
2018-05-26T01:48:47.462Z,7.80
2018-05-26T01:49:47.434Z,8.00
2018-05-26T01:50:47.297Z,8.00
2018-05-26T01:51:47.270Z,7.90
2018-05-26T01:52:47.144Z,8.50
2018-05-26T01:53:47.156Z,8.20
2018-05-26T01:54:46.993Z,7.90
2018-05-26T01:55:46.955Z,8.20
2018-05-26T01:56:46.859Z,7.80
2018-05-26T01:57:46.876Z,8.20
2018-05-26T01:58:46.687Z,7.90
2018-05-26T02:01:28.799Z,8.30
2018-05-26T02:02:28.823Z,7.90
2018-05-26T02:03:28.648Z,7.70
2018-05-26T02:04:28.689Z,7.90
2018-05-26T02:05:28.492Z,8.20
2018-05-26T02:06:28.505Z,7.80
2018-05-26T02:07:28.366Z,7.90
2018-05-26T02:08:28.309Z,7.50
2018-05-26T02:09:28.171Z,8.30
2018-05-26T02:12:10.333Z,8.70
2018-05-26T02:13:10.319Z,8.30
2018-05-26T02:14:10.147Z,7.70
2018-05-26T02:15:10.128Z,8.40
2018-05-26T02:16:09.992Z,8.50
2018-05-26T02:17:09.987Z,8.20
2018-05-26T02:18:09.849Z,8.30
2018-05-26T02:19:09.850Z,8.30
2018-05-26T02:20:09.689Z,8.20
2018-05-26T02:21:09.657Z,8.20
2018-05-26T02:22:09.565Z,8.30
2018-05-26T02:24:51.810Z,8.80
2018-05-26T02:25:51.763Z,8.80
2018-05-26T02:26:51.654Z,8.80
2018-05-26T02:27:51.719Z,8.20
2018-05-26T02:28:51.489Z,8.20
2018-05-26T02:29:51.481Z,8.20
2018-05-26T02:30:51.343Z,8.40
2018-05-26T02:33:33.333Z,7.90
2018-05-26T02:34:33.307Z,8.20
2018-05-26T02:35:33.159Z,8.20
2018-05-26T02:36:33.199Z,8.60
2018-05-26T02:37:33.000Z,8.10
2018-05-26T02:38:36.023Z,8.50
2018-05-26T02:39:32.841Z,8.20
2018-05-26T02:42:14.814Z,7.90
2018-05-26T02:43:14.856Z,7.80
2018-05-26T02:44:14.675Z,7.90
2018-05-26T02:45:14.630Z,8.10
2018-05-26T02:46:14.515Z,9.10
2018-05-26T02:47:14.537Z,9.20
2018-05-26T02:48:14.370Z,9.30
2018-05-26T02:49:15.406Z,9.00
2018-05-26T02:50:14.206Z,8.80
2018-05-26T02:51:14.155Z,8.60
2018-05-26T02:52:14.032Z,8.90
2018-05-26T02:53:14.061Z,8.60
2018-05-26T02:54:13.931Z,8.70
2018-05-26T02:55:13.884Z,8.00
2018-05-26T02:56:13.726Z,8.20
2018-05-26T02:58:55.832Z,8.20
2018-05-26T02:59:55.781Z,8.70
2018-05-26T03:00:55.661Z,8.20
2018-05-26T03:01:55.695Z,9.10
2018-05-26T03:02:55.507Z,8.80
2018-05-26T03:03:55.533Z,9.00
2018-05-26T03:04:55.352Z,8.80
2018-05-26T03:05:55.306Z,8.60
2018-05-26T03:06:55.193Z,9.20
2018-05-26T03:07:55.221Z,8.90
2018-05-26T03:08:55.039Z,8.20
2018-05-26T03:09:55.072Z,8.50
2018-05-26T03:10:54.896Z,8.30
2018-05-26T03:11:54.836Z,8.30
2018-05-26T03:12:54.734Z,8.60
2018-05-26T03:13:54.755Z,8.70
2018-05-26T03:14:54.575Z,8.30
2018-05-26T03:17:36.840Z,8.50
2018-05-26T03:18:36.854Z,8.90
2018-05-26T03:19:36.696Z,8.90
2018-05-26T03:20:36.606Z,8.70
2018-05-26T03:21:36.512Z,8.40
2018-05-26T03:22:36.477Z,8.50
2018-05-26T03:23:36.348Z,9.10
2018-05-26T03:24:39.487Z,8.90
2018-05-26T03:25:36.235Z,8.80
2018-05-26T03:26:36.190Z,8.30
2018-05-26T03:27:36.037Z,8.50
2018-05-26T03:28:35.996Z,8.30
2018-05-26T03:29:35.888Z,8.70
2018-05-26T03:30:35.952Z,8.60
2018-05-26T03:31:35.788Z,8.80
2018-05-26T03:32:35.721Z,8.80
2018-05-26T03:33:35.565Z,9.00
2018-05-26T03:34:35.541Z,8.70
2018-05-26T03:35:35.472Z,9.00
2018-05-26T03:36:35.444Z,8.80
2018-05-26T03:37:36.353Z,8.90
2018-05-26T03:38:35.261Z,8.80
2018-05-26T03:39:35.108Z,8.70
2018-05-26T03:40:36.225Z,8.80
2018-05-26T03:41:34.944Z,8.60
2018-05-26T03:42:34.971Z,9.00
2018-05-26T03:43:34.795Z,8.40
2018-05-26T03:46:16.849Z,9.10
2018-05-26T03:47:16.877Z,8.80
2018-05-26T03:48:16.680Z,8.50
2018-05-26T03:50:58.850Z,8.20
2018-05-26T03:51:58.782Z,8.70
2018-05-26T03:52:58.683Z,8.90
2018-05-26T03:53:58.703Z,8.40
2018-05-26T03:54:58.515Z,8.50
2018-05-26T03:55:58.537Z,8.70
2018-05-26T03:56:58.366Z,8.70
2018-05-26T03:59:40.334Z,8.50
2018-05-26T04:00:40.322Z,8.60
2018-05-26T04:01:40.212Z,8.50
2018-05-26T04:02:40.252Z,8.50
2018-05-26T04:03:40.035Z,8.40
2018-05-26T04:04:40.032Z,8.00
2018-05-26T04:05:39.863Z,8.50
2018-05-26T04:06:39.878Z,8.60
2018-05-26T04:07:39.721Z,8.40
2018-05-26T04:08:39.764Z,8.60
2018-05-26T04:09:39.546Z,8.30
2018-05-26T04:10:39.560Z,8.10
2018-05-26T04:11:39.421Z,8.10
2018-05-26T04:12:39.368Z,8.60
2018-05-26T04:13:39.238Z,8.60
2018-05-26T04:16:21.368Z,8.10
2018-05-26T04:17:21.378Z,8.00
2018-05-26T04:18:21.191Z,8.10
2018-05-26T04:19:21.191Z,7.80
2018-05-26T04:20:21.196Z,7.90
2018-05-26T04:21:21.025Z,8.40
2018-05-26T04:22:20.899Z,8.50
2018-05-26T04:23:20.903Z,8.10
2018-05-26T04:24:20.722Z,8.30
2018-05-26T04:25:20.707Z,8.30
2018-05-26T04:26:20.565Z,8.60
2018-05-26T04:27:20.549Z,8.50
2018-05-26T04:28:20.459Z,8.30
2018-05-26T04:29:20.429Z,8.20
2018-05-26T04:30:20.243Z,8.70
2018-05-26T04:31:20.243Z,8.50
2018-05-26T04:32:20.108Z,8.70
2018-05-26T04:33:20.060Z,8.30
2018-05-26T04:34:19.941Z,8.40
2018-05-26T04:35:20.018Z,8.70
2018-05-26T04:36:19.822Z,8.50
2018-05-26T04:37:20.832Z,8.70
2018-05-26T04:38:19.635Z,8.80
2018-05-26T04:39:19.580Z,8.70
2018-05-26T04:40:19.471Z,8.60
2018-05-26T04:41:19.534Z,8.70
2018-05-26T04:42:19.331Z,9.40
2018-05-26T04:45:01.344Z,8.00
2018-05-26T04:46:01.401Z,8.90
2018-05-26T04:47:01.195Z,8.60
2018-05-26T04:48:04.942Z,9.10
2018-05-26T04:49:01.055Z,9.70
2018-05-26T04:50:01.015Z,9.20
2018-05-26T04:51:00.883Z,9.00
2018-05-26T04:53:42.878Z,9.30
2018-05-26T04:54:42.817Z,9.60
2018-05-26T04:55:42.686Z,9.20
2018-05-26T04:56:42.727Z,9.30
2018-05-26T04:57:42.544Z,9.90
2018-05-26T04:58:42.580Z,8.80
2018-05-26T04:59:42.381Z,8.60
2018-05-26T05:02:24.349Z,9.00
2018-05-26T05:03:25.505Z,8.70
2018-05-26T05:04:24.197Z,8.30
2018-05-26T05:05:24.155Z,9.10
2018-05-26T05:06:24.048Z,9.00
2018-05-26T05:07:24.065Z,8.70
2018-05-26T05:08:23.902Z,8.80
2018-05-26T05:09:23.873Z,8.30
2018-05-26T05:10:23.730Z,8.90
2018-05-26T05:11:23.676Z,9.10
2018-05-26T05:12:23.592Z,9.20
2018-05-26T05:13:23.629Z,9.00
2018-05-26T05:14:23.429Z,9.90
2018-05-26T05:17:05.359Z,9.00
2018-05-26T05:18:05.398Z,9.10
2018-05-26T05:19:05.223Z,8.20
2018-05-26T05:20:05.206Z,7.90
2018-05-26T05:21:05.050Z,8.70
2018-05-26T05:22:05.036Z,8.40
2018-05-26T05:23:04.897Z,8.50
2018-05-26T05:24:04.973Z,8.30
2018-05-26T05:25:04.734Z,8.90
2018-05-26T05:26:04.740Z,7.80
2018-05-26T05:27:04.585Z,7.90
2018-05-26T05:28:04.538Z,7.90
2018-05-26T05:29:04.472Z,7.40
2018-05-26T05:30:04.469Z,7.90
2018-05-26T05:31:04.271Z,7.90
2018-05-26T05:32:04.269Z,8.20
2018-05-26T05:33:04.120Z,7.80
2018-05-26T05:34:04.078Z,8.10
2018-05-26T05:35:03.989Z,8.30
2018-05-26T05:36:03.983Z,8.50
2018-05-26T05:37:03.855Z,8.00
2018-05-26T05:38:03.801Z,8.20
2018-05-26T05:39:03.648Z,8.50
2018-05-26T05:40:03.649Z,8.20
2018-05-26T05:41:03.496Z,8.20
2018-05-26T05:42:03.519Z,8.50
2018-05-26T05:43:03.345Z,8.10
2018-05-26T05:45:45.401Z,8.20
2018-05-26T05:46:45.411Z,7.90
2018-05-26T05:47:45.219Z,8.00
2018-05-26T05:48:45.227Z,7.80
2018-05-26T05:49:45.069Z,8.50
2018-05-26T05:50:45.040Z,8.20
2018-05-26T05:51:44.915Z,8.80
2018-05-26T05:52:44.946Z,9.10
2018-05-26T05:53:44.752Z,8.10
2018-05-26T05:54:44.795Z,7.90
2018-05-26T05:55:44.626Z,7.20
2018-05-26T05:56:44.561Z,10.80
2018-05-26T05:57:44.440Z,10.80
2018-05-26T06:00:26.375Z,8.80
2018-05-26T06:01:27.530Z,8.10
2018-05-26T06:02:26.224Z,7.30
2018-05-26T06:05:08.370Z,6.90
2018-05-26T06:06:08.429Z,7.20
2018-05-26T06:07:08.224Z,7.40
2018-05-26T06:09:50.394Z,7.20
2018-05-26T06:10:50.432Z,6.60
2018-05-26T06:11:50.215Z,6.60
2018-05-26T06:14:32.378Z,6.90
2018-05-26T06:15:32.503Z,6.40
2018-05-26T06:16:32.263Z,6.30
2018-05-26T06:42:53.949Z,6.50
2018-05-26T06:43:53.907Z,5.30
2018-05-26T06:44:53.835Z,5.00
2018-05-26T06:45:53.795Z,5.30
2018-05-26T06:46:53.592Z,5.00
2018-05-26T06:47:53.624Z,5.00
2018-05-26T06:48:53.478Z,5.20
2018-05-26T06:49:53.511Z,5.10
2018-05-26T06:50:53.321Z,5.20
2018-05-26T06:51:53.317Z,5.20
2018-05-26T06:52:53.208Z,5.10
2018-05-26T06:55:18.987Z,5.50
2018-05-26T06:55:19.486Z,4.90
2018-05-26T06:56:19.487Z,5.60
2018-05-26T06:57:19.359Z,5.30
2018-05-26T06:58:19.367Z,5.10
2018-05-26T06:59:19.203Z,5.30
2018-05-26T07:00:19.347Z,5.30
2018-05-26T07:01:19.086Z,5.10
2018-05-26T07:02:20.157Z,5.00
2018-05-26T07:03:18.940Z,4.80
2018-05-26T07:06:00.896Z,5.10
2018-05-26T07:07:00.889Z,5.20
2018-05-26T07:08:00.788Z,5.20
2018-05-26T07:09:00.811Z,5.80
2018-05-26T07:10:00.641Z,5.10
2018-05-26T07:12:42.935Z,5.00
2018-05-26T07:13:42.932Z,5.10
2018-05-26T07:14:42.764Z,4.80
2018-05-26T07:15:42.836Z,5.00
2018-05-26T07:16:42.685Z,5.00
2018-05-26T07:17:43.688Z,5.20
2018-05-26T07:18:42.492Z,4.40
2018-05-26T07:19:42.543Z,4.50
2018-05-26T07:20:42.351Z,4.30
2018-05-26T07:21:42.300Z,4.60
2018-05-26T07:22:42.233Z,5.00
2018-05-26T07:23:42.303Z,4.60
2018-05-26T07:24:42.137Z,4.80
2018-05-26T07:25:42.081Z,4.20
2018-05-26T07:26:41.954Z,4.80
2018-05-26T07:29:23.930Z,4.60
2018-05-26T07:30:23.882Z,4.50
2018-05-26T07:31:23.771Z,4.40
2018-05-26T07:32:23.808Z,4.70
2018-05-26T07:33:23.659Z,4.90
2018-05-26T07:34:23.609Z,4.40
2018-05-26T07:35:23.549Z,4.10
2018-05-26T07:36:23.433Z,4.40
2018-05-26T07:37:23.449Z,4.50
2018-05-26T07:38:23.364Z,4.90
2018-05-26T07:39:23.231Z,4.40
2018-05-26T07:40:23.227Z,4.40
2018-05-26T07:41:23.094Z,4.40
2018-05-26T07:44:05.436Z,4.60
2018-05-26T07:45:05.456Z,4.60
2018-05-26T07:46:05.266Z,4.40
2018-05-26T07:48:47.437Z,4.40
2018-05-26T07:51:41.417Z,4.30
2018-05-26T07:54:26.577Z,4.40
2018-05-26T07:55:24.162Z,4.40
2018-05-26T08:00:52.983Z,4.90
2018-05-26T08:01:52.955Z,4.40
2018-05-26T08:02:52.785Z,4.40
2018-05-26T08:03:52.774Z,4.50
2018-05-26T08:04:52.668Z,4.20
2018-05-26T08:17:10.561Z,4.50
2018-05-26T08:18:09.374Z,4.30
2018-05-26T08:19:09.361Z,3.90
2018-05-26T08:20:09.279Z,4.00
2018-05-26T08:21:09.288Z,3.90
2018-05-26T08:22:09.095Z,4.20
2018-05-26T08:23:09.067Z,4.20
2018-05-26T08:24:08.974Z,4.10
2018-05-26T08:25:10.051Z,4.20
2018-05-26T08:26:08.832Z,4.00
2018-05-26T08:27:08.800Z,4.40
2018-05-26T08:28:08.705Z,4.00
2018-05-26T08:29:08.705Z,4.00
2018-05-26T08:30:08.597Z,4.00
2018-05-26T08:31:08.628Z,3.80
2018-05-26T08:32:08.453Z,3.70
2018-05-26T08:33:08.433Z,4.00
2018-05-26T08:34:08.302Z,4.00
2018-05-26T08:35:08.385Z,4.00
2018-05-26T08:36:08.178Z,3.70
2018-05-26T08:37:08.142Z,4.30
2018-05-26T08:38:08.171Z,3.70
2018-05-26T08:39:08.056Z,4.20
2018-05-26T08:40:07.929Z,3.90
2018-05-26T08:41:07.864Z,4.00
2018-05-26T08:42:07.770Z,4.30
2018-05-26T08:43:07.780Z,3.90
2018-05-26T08:44:07.853Z,4.10
2018-05-26T08:45:07.693Z,3.90
2018-05-26T08:46:07.516Z,4.00
2018-05-26T08:47:07.490Z,3.90
2018-05-26T08:48:07.460Z,6.60
2018-05-26T08:49:07.412Z,6.50
2018-05-26T08:50:07.249Z,4.00
2018-05-26T08:51:07.256Z,4.50
2018-05-26T08:52:07.107Z,4.00
2018-05-26T08:53:07.133Z,3.90
2018-05-26T08:54:06.990Z,3.70
2018-05-26T08:55:07.040Z,3.70
2018-05-26T08:56:06.964Z,3.80
2018-05-26T08:57:06.797Z,3.70
2018-05-26T08:58:06.722Z,4.20
2018-05-26T08:59:06.655Z,4.00
2018-05-26T09:00:06.581Z,4.40
2018-05-26T09:01:06.535Z,4.60
2018-05-26T09:02:06.453Z,3.90
2018-05-26T09:03:06.398Z,4.50
2018-05-26T09:04:06.324Z,3.90
2018-05-26T09:05:06.284Z,4.10
2018-05-26T09:06:06.236Z,4.30
2018-05-26T09:07:06.148Z,3.50
2018-05-26T09:08:06.071Z,3.80
2018-05-26T09:09:06.041Z,4.40
2018-05-26T09:10:05.953Z,3.80
2018-05-26T09:11:05.892Z,3.70
2018-05-26T09:12:05.840Z,3.90
2018-05-26T09:13:05.826Z,3.50
2018-05-26T09:14:05.697Z,3.50
2018-05-26T09:15:05.729Z,3.70
2018-05-26T09:16:05.564Z,3.60
2018-05-26T09:17:05.580Z,3.80
2018-05-26T09:18:05.436Z,3.70
2018-05-26T09:19:05.457Z,3.80
2018-05-26T09:20:05.305Z,3.80
2018-05-26T09:21:05.359Z,3.80
2018-05-26T09:22:05.218Z,3.70
2018-05-26T09:23:05.171Z,3.70
2018-05-26T09:24:05.057Z,3.30
2018-05-26T09:25:05.114Z,3.50
2018-05-26T09:26:04.924Z,3.60
2018-05-26T09:27:04.941Z,3.60
2018-05-26T09:28:04.812Z,3.50
2018-05-26T09:29:04.799Z,3.60
2018-05-26T09:30:04.668Z,3.80
2018-05-26T09:31:04.723Z,3.60
2018-05-26T09:32:04.537Z,3.60
2018-05-26T09:33:04.554Z,3.60
2018-05-26T09:34:04.436Z,3.50
2018-05-26T09:35:04.429Z,3.30
2018-05-26T09:36:04.298Z,3.90
2018-05-26T09:37:04.348Z,3.40
2018-05-26T09:38:04.335Z,3.40
2018-05-26T09:39:04.156Z,3.60
2018-05-26T09:40:04.056Z,3.90
2018-05-26T09:41:03.999Z,3.50
2018-05-26T09:42:03.912Z,3.50
2018-05-26T09:43:03.899Z,3.80
2018-05-26T09:44:03.796Z,3.50
2018-05-26T09:46:45.957Z,3.50
2018-05-26T09:47:46.948Z,3.30
2018-05-26T09:48:45.887Z,3.40
2018-05-26T09:49:45.791Z,3.30
2018-05-26T09:50:45.701Z,3.50
2018-05-26T09:51:45.730Z,3.00
2018-05-26T09:52:45.610Z,3.10
2018-05-26T09:53:45.520Z,3.30
2018-05-26T09:54:45.470Z,3.10
2018-05-26T09:55:45.415Z,3.20
2018-05-26T09:56:45.330Z,3.70
2018-05-26T09:57:45.277Z,3.50
2018-05-26T09:58:45.230Z,3.20
2018-05-26T09:59:45.145Z,3.30
2018-05-26T10:00:45.088Z,3.30
2018-05-26T10:01:45.016Z,3.20
2018-05-26T10:02:44.958Z,3.30
2018-05-26T10:03:44.911Z,3.10
2018-05-26T10:04:44.909Z,3.10
2018-05-26T10:05:44.769Z,3.20
2018-05-26T10:06:44.719Z,3.10
2018-05-26T10:07:44.642Z,3.40
2018-05-26T10:08:44.609Z,3.00
2018-05-26T10:09:44.593Z,3.40
2018-05-26T10:10:44.447Z,3.30
2018-05-26T10:11:44.513Z,3.40
2018-05-26T10:12:44.334Z,3.10
2018-05-26T10:13:44.612Z,2.90
2018-05-26T10:14:44.227Z,3.30
2018-05-26T10:15:44.223Z,3.30
2018-05-26T10:16:44.090Z,3.40
2018-05-26T10:17:44.130Z,3.60
2018-05-26T10:18:43.976Z,3.60
2018-05-26T10:19:43.987Z,3.20
2018-05-26T10:20:43.850Z,3.20
2018-05-26T10:21:43.847Z,3.40
2018-05-26T10:22:43.729Z,2.90
2018-05-26T10:23:43.779Z,3.30
2018-05-26T10:24:43.631Z,3.20
2018-05-26T10:25:43.722Z,3.10
2018-05-26T10:26:43.468Z,3.30
2018-05-26T10:27:43.510Z,2.80
2018-05-26T10:28:43.348Z,3.30
2018-05-26T10:29:43.447Z,3.30
2018-05-26T10:30:43.297Z,3.10
2018-05-26T10:31:43.224Z,3.30
2018-05-26T10:32:43.104Z,3.40
2018-05-26T10:33:43.110Z,3.10
2018-05-26T10:34:43.008Z,3.60
2018-05-26T10:35:43.033Z,3.30
2018-05-26T10:36:42.884Z,3.50
2018-05-26T10:37:42.830Z,3.70
2018-05-26T10:38:42.736Z,3.40
2018-05-26T10:39:43.839Z,3.20
2018-05-26T10:40:42.615Z,3.40
2018-05-26T10:41:42.688Z,3.40
2018-05-26T10:42:42.483Z,3.20
2018-05-26T10:43:42.482Z,3.40
2018-05-26T10:44:42.384Z,3.30
2018-05-26T10:45:42.602Z,3.10
2018-05-26T10:46:42.250Z,3.30
2018-05-26T10:47:42.282Z,3.20
2018-05-26T10:48:42.140Z,3.30
2018-05-26T10:49:42.145Z,3.40
2018-05-26T10:50:41.991Z,3.50
2018-05-26T10:51:42.004Z,3.00
2018-05-26T10:52:41.882Z,3.60
2018-05-26T10:53:41.929Z,3.30
2018-05-26T10:54:41.800Z,3.20
2018-05-26T10:55:41.721Z,3.20
2018-05-26T10:56:41.621Z,3.10
2018-05-26T10:57:41.628Z,3.20
2018-05-26T10:58:41.510Z,3.30
2018-05-26T10:59:41.579Z,3.40
2018-05-26T11:00:41.392Z,2.90
2018-05-26T11:01:41.349Z,3.10
2018-05-26T11:02:41.268Z,3.40
2018-05-26T11:03:41.270Z,3.60
2018-05-26T11:04:41.136Z,3.10
2018-05-26T11:05:41.218Z,3.30
2018-05-26T11:06:41.013Z,3.40
2018-05-26T11:07:41.071Z,3.00
2018-05-26T11:08:40.891Z,3.40
2018-05-26T11:09:40.892Z,3.10
2018-05-26T11:10:40.781Z,3.60
2018-05-26T11:11:40.800Z,3.40
2018-05-26T11:12:40.632Z,3.20
2018-05-26T11:13:40.617Z,3.30
2018-05-26T11:14:40.565Z,3.20
2018-05-26T11:15:40.567Z,3.30
2018-05-26T11:16:40.394Z,3.40
2018-05-26T11:17:40.431Z,3.10
2018-05-26T11:18:40.274Z,3.20
2018-05-26T11:19:40.247Z,3.10
2018-05-26T11:20:40.138Z,3.10
2018-05-26T11:21:40.194Z,3.20
2018-05-26T11:22:40.025Z,3.20
2018-05-26T11:23:40.213Z,3.10
2018-05-26T11:24:40.087Z,3.40
2018-05-26T11:27:22.051Z,3.00
2018-05-26T11:28:21.980Z,3.10
2018-05-26T11:29:21.865Z,3.40
2018-05-26T11:30:21.914Z,3.10
2018-05-26T11:31:21.778Z,3.00
2018-05-26T11:32:21.803Z,2.80
2018-05-26T11:33:21.634Z,3.20
2018-05-26T11:34:21.597Z,3.20
2018-05-26T11:35:21.527Z,3.10
2018-05-26T11:36:21.572Z,3.30
2018-05-26T11:37:21.417Z,3.30
2018-05-26T11:38:21.435Z,3.50
2018-05-26T11:39:21.267Z,3.30
2018-05-26T11:40:21.339Z,3.50
2018-05-26T11:41:21.136Z,3.50
2018-05-26T11:42:21.187Z,3.40
2018-05-26T11:43:21.032Z,3.20
2018-05-26T11:44:21.060Z,3.20
2018-05-26T11:45:20.908Z,3.20
2018-05-26T11:46:20.857Z,3.30
2018-05-26T11:47:20.813Z,3.10
2018-05-26T11:48:20.774Z,3.30
2018-05-26T11:49:20.777Z,3.10
2018-05-26T11:50:20.684Z,3.40
2018-05-26T11:51:20.547Z,3.30
2018-05-26T11:52:20.634Z,3.30
2018-05-26T11:53:20.468Z,3.10
2018-05-26T11:54:20.399Z,3.20
2018-05-26T11:55:20.285Z,3.00
2018-05-26T11:56:20.310Z,3.00
2018-05-26T11:57:20.164Z,3.00
2018-05-26T11:58:20.161Z,3.10
2018-05-26T11:59:20.032Z,3.30
2018-05-26T12:00:20.048Z,3.40
2018-05-26T12:01:19.899Z,4.00
2018-05-26T12:02:19.941Z,3.70
2018-05-26T12:03:19.794Z,3.90
2018-05-26T12:04:19.756Z,3.60
2018-05-26T12:05:19.639Z,3.40
2018-05-26T12:06:19.661Z,3.50
2018-05-26T12:07:19.501Z,3.60
2018-05-26T12:08:19.501Z,3.20
2018-05-26T12:09:19.381Z,3.50
2018-05-26T12:10:19.380Z,3.40
2018-05-26T12:11:19.237Z,3.30
2018-05-26T12:12:19.233Z,3.50
2018-05-26T12:13:19.161Z,3.60
2018-05-26T12:14:19.108Z,3.20
2018-05-26T12:15:18.977Z,3.50
2018-05-26T12:16:19.017Z,3.50
2018-05-26T12:17:18.825Z,3.20
2018-05-26T12:18:18.855Z,3.30
2018-05-26T12:19:18.691Z,3.30
2018-05-26T12:20:18.732Z,3.30
2018-05-26T12:21:18.580Z,3.30
2018-05-26T12:22:18.577Z,3.20
2018-05-26T12:23:18.449Z,3.20
2018-05-26T12:24:18.457Z,3.20
2018-05-26T12:25:18.308Z,3.30
2018-05-26T12:26:18.264Z,3.30
2018-05-26T12:27:18.193Z,3.40
2018-05-26T12:28:18.177Z,3.40
2018-05-26T12:29:18.019Z,3.70
2018-05-26T12:30:17.979Z,3.70
2018-05-26T12:31:17.880Z,3.60
2018-05-26T12:32:17.905Z,3.40
2018-05-26T12:33:17.754Z,3.70
2018-05-26T12:34:17.723Z,3.50
2018-05-26T12:35:17.595Z,3.30
2018-05-26T12:37:59.524Z,3.40
2018-05-26T12:38:59.472Z,3.40
2018-05-26T12:39:59.448Z,3.50
2018-05-26T12:40:59.434Z,3.50
2018-05-26T12:41:59.236Z,3.50
2018-05-26T12:42:59.229Z,3.50
2018-05-26T12:43:59.128Z,3.40
2018-05-26T12:44:59.133Z,3.60
2018-05-26T12:45:58.982Z,3.20
2018-05-26T12:46:58.942Z,3.30
2018-05-26T12:47:58.820Z,3.30
2018-05-26T12:48:58.789Z,3.10
2018-05-26T12:49:58.681Z,3.50
2018-05-26T12:50:58.613Z,3.60
2018-05-26T12:51:58.538Z,3.90
2018-05-26T12:52:58.475Z,3.80
2018-05-26T12:54:01.667Z,3.90
2018-05-26T12:54:58.348Z,3.40
2018-05-26T12:55:58.271Z,3.30
2018-05-26T12:56:58.200Z,4.60
2018-05-26T12:59:23.539Z,3.60
2018-05-26T13:00:23.499Z,3.30
2018-05-26T13:01:23.383Z,3.10
2018-05-26T13:02:23.482Z,3.40
2018-05-26T13:03:23.243Z,3.40
2018-05-26T13:04:23.254Z,3.40
2018-05-26T13:05:23.116Z,3.00
2018-05-26T13:06:23.126Z,3.20
2018-05-26T13:07:22.976Z,3.20
2018-05-26T13:08:22.942Z,3.40
2018-05-26T13:09:26.177Z,3.20
2018-05-26T13:10:22.867Z,3.10
2018-05-26T13:11:22.703Z,3.30
2018-05-26T13:12:22.669Z,3.10
2018-05-26T13:13:22.567Z,2.90
2018-05-26T13:14:22.617Z,3.20
2018-05-26T13:15:22.577Z,3.30
2018-05-26T13:16:22.378Z,3.20
2018-05-26T13:17:22.282Z,3.10
2018-05-26T13:18:22.289Z,3.30
2018-05-26T13:19:22.140Z,3.20
2018-05-26T13:20:22.128Z,3.30
2018-05-26T13:21:22.001Z,3.20
2018-05-26T13:22:22.017Z,3.00
2018-05-26T13:23:21.894Z,3.30
2018-05-26T13:24:21.921Z,3.40
2018-05-26T13:25:21.829Z,3.00
2018-05-26T13:26:21.736Z,3.10
2018-05-26T13:27:21.604Z,3.10
2018-05-26T13:28:21.662Z,3.10
2018-05-26T13:29:21.454Z,3.60
2018-05-26T13:30:21.494Z,3.50
2018-05-26T13:31:21.328Z,3.30
2018-05-26T13:32:21.247Z,3.10
2018-05-26T13:33:21.169Z,3.50
2018-05-26T13:34:21.118Z,3.20
2018-05-26T13:35:21.097Z,3.30
2018-05-26T13:36:21.010Z,3.30
2018-05-26T13:37:20.905Z,3.30
2018-05-26T13:38:20.892Z,3.30
2018-05-26T13:39:20.768Z,3.20
2018-05-26T13:40:20.836Z,3.10
2018-05-26T13:41:20.637Z,3.30
2018-05-26T13:42:20.701Z,3.40
2018-05-26T13:43:20.476Z,3.40
2018-05-26T13:44:20.512Z,3.30
2018-05-26T13:45:20.332Z,3.30
2018-05-26T13:46:20.357Z,3.10
2018-05-26T13:47:20.202Z,3.00
2018-05-26T13:48:20.235Z,3.00
2018-05-26T13:49:20.060Z,3.10
2018-05-26T13:50:20.058Z,3.30
2018-05-26T13:51:23.248Z,3.30
2018-05-26T13:52:19.981Z,3.30
2018-05-26T13:53:19.824Z,3.00
2018-05-26T13:54:19.775Z,3.40
2018-05-26T13:55:19.642Z,2.90
2018-05-26T13:56:20.373Z,3.40
2018-05-26T13:57:19.521Z,3.40
2018-05-26T13:58:19.490Z,3.20
2018-05-26T13:59:19.357Z,3.30
2018-05-26T14:00:19.388Z,72.80
2018-05-26T14:01:19.245Z,78.40
2018-05-26T14:02:20.253Z,176.70
2018-05-26T14:03:19.101Z,301.90
2018-05-26T14:04:19.038Z,92.50
2018-05-26T14:05:18.955Z,12.00
2018-05-26T14:08:01.075Z,3.30
2018-05-26T14:09:00.989Z,2.90
2018-05-26T14:10:00.915Z,3.00
2018-05-26T14:11:00.908Z,3.40
2018-05-26T14:12:00.783Z,3.20
2018-05-26T14:13:00.720Z,3.30
2018-05-26T14:14:00.633Z,3.00
2018-05-26T14:15:00.583Z,3.90
2018-05-26T14:16:00.504Z,4.30
2018-05-26T14:17:00.430Z,3.90
2018-05-26T14:18:00.385Z,4.30
2018-05-26T14:20:42.562Z,3.30
2018-05-26T14:21:42.489Z,3.60
2018-05-26T14:22:42.470Z,3.80
2018-05-26T14:25:24.548Z,3.20
2018-05-26T14:26:24.487Z,3.80
2018-05-26T14:53:46.315Z,4.10
2018-05-26T14:54:46.113Z,2.70
2018-05-26T14:55:46.088Z,2.80
2018-05-26T14:56:45.961Z,2.80
2018-05-26T14:57:45.994Z,4.10
2018-05-26T14:58:45.843Z,3.40
2018-05-26T14:59:45.802Z,2.90
2018-05-26T15:00:45.691Z,2.90
2018-05-26T15:03:27.569Z,3.10
2018-05-26T15:04:27.731Z,3.30
2018-05-26T15:05:27.430Z,2.80
2018-05-26T15:06:27.499Z,3.20
2018-05-26T15:07:27.347Z,3.20
2018-05-26T15:09:52.112Z,2.90
2018-05-26T15:12:38.108Z,3.00
2018-05-26T15:13:38.197Z,3.10
2018-05-26T15:14:37.961Z,3.20
2018-05-26T15:15:37.998Z,2.90
2018-05-26T15:16:37.824Z,3.10
2018-05-26T15:17:37.899Z,3.00
2018-05-26T15:18:37.674Z,3.20
2018-05-26T15:19:37.757Z,2.90
2018-05-26T15:20:37.523Z,3.00
2018-05-26T15:21:37.662Z,3.90
2018-05-26T15:22:37.418Z,4.00
2018-05-26T15:23:37.436Z,3.40
2018-05-26T15:24:37.254Z,4.70
2018-05-26T15:25:37.348Z,3.60
2018-05-26T15:26:37.091Z,3.40
2018-05-26T15:27:37.153Z,3.30
2018-05-26T15:31:49.921Z,3.40
2018-05-26T15:32:49.614Z,3.10
2018-05-26T15:33:49.694Z,3.10
2018-05-26T15:34:49.637Z,3.20
2018-05-26T15:35:49.612Z,2.90
2018-05-26T15:36:49.341Z,3.30
2018-05-26T15:37:49.432Z,3.40
2018-05-26T15:38:49.189Z,3.40
2018-05-26T15:39:50.197Z,3.70
2018-05-26T15:40:49.052Z,2.80
2018-05-26T15:41:49.136Z,3.00
2018-05-26T15:42:48.911Z,2.90
2018-05-26T15:43:49.052Z,2.80
2018-05-26T15:44:51.614Z,3.00
2018-05-26T15:45:48.902Z,3.20
2018-05-26T15:46:48.635Z,2.90
2018-05-26T15:49:30.584Z,3.20
2018-05-26T15:50:30.933Z,3.40
2018-05-26T15:51:30.478Z,2.90
2018-05-26T15:52:30.619Z,4.10
2018-05-26T15:53:30.305Z,3.40